Time;durP1;ratioP1;P1;durP2;ratioP2;P2;SDS_P1;SDS_P2;PMS_P1;PMS_P2;Temp;Humidity;BMP_temperature;BMP_pressure;BME280_temperature;BME280_humidity;BME280_pressure;Samples;Min_cycle;Max_cycle;Signal;HPM_P1;HPM_P2
2023/03/18 00:01:19;;;;;;;2.53;0.68;;;;;;;;;;4923448;29;20028;-80
2023/03/18 00:03:47;;;;;;;3.72;0.90;;;;;;;;;;4920316;29;20032;-80
2023/03/18 00:06:14;;;;;;;2.08;0.73;;;;;;;;;;4922894;29;20034;-80
2023/03/18 00:08:41;;;;;;;2.88;0.77;;;;;;;;;;4920968;29;20400;-82
2023/03/18 00:11:08;;;;;;;1.25;0.45;;;;;;;;;;4922250;29;20020;-80
2023/03/18 00:13:35;;;;;;;1.92;0.50;;;;;;;;;;4923315;29;20036;-80
2023/03/18 00:16:03;;;;;;;2.10;0.50;;;;;;;;;;4925955;29;20021;-82
2023/03/18 00:18:31;;;;;;;3.00;0.60;;;;;;;;;;4923177;29;20087;-79
2023/03/18 00:20:59;;;;;;;2.08;0.50;;;;;;;;;;4924276;29;20101;-80
2023/03/18 00:23:26;;;;;;;3.50;0.80;;;;;;;;;;4916957;29;20036;-82
2023/03/18 00:25:53;;;;;;;0.95;0.50;;;;;;;;;;4918053;29;20429;-81
2023/03/18 00:28:20;;;;;;;3.97;0.90;;;;;;;;;;4915925;29;20497;-84
2023/03/18 00:30:46;;;;;;;2.45;0.50;;;;;;;;;;4909442;29;20366;-80
2023/03/18 00:33:12;;;;;;;3.70;0.90;;;;;;;;;;4918323;29;20051;-80
2023/03/18 00:35:38;;;;;;;3.10;0.73;;;;;;;;;;4912171;29;20103;-81
2023/03/18 00:38:06;;;;;;;2.90;0.80;;;;;;;;;;4915458;29;20481;-79
2023/03/18 00:40:42;;;;;;;3.95;0.75;;;;;;;;;;4908174;29;20021;-79
2023/03/18 00:43:11;;;;;;;3.47;0.82;;;;;;;;;;4908745;29;20103;-80
2023/03/18 00:45:39;;;;;;;3.13;0.60;;;11.90;99.90;;;;;;4921358;29;20024;-80
2023/03/18 00:48:06;;;;;;;2.63;0.60;;;;;;;;;;4917966;29;20028;-78
2023/03/18 00:50:35;;;;;;;2.10;0.63;;;11.80;99.90;;;;;;4903247;29;20041;-78
2023/03/18 00:53:01;;;;;;;2.15;0.70;;;;;;;;;;4906191;29;20025;-79
2023/03/18 00:55:27;;;;;;;2.65;0.68;;;;;;;;;;4914792;29;20489;-79
2023/03/18 00:57:53;;;;;;;1.92;0.60;;;;;;;;;;4914639;29;20091;-77
2023/03/18 01:00:20;;;;;;;1.42;0.60;;;;;;;;;;4921749;29;20056;-77
2023/03/18 01:02:48;;;;;;;1.52;0.50;;;;;;;;;;4923152;29;20505;-79
2023/03/18 01:05:15;;;;;;;3.67;0.75;;;;;;;;;;4923014;29;20115;-77
2023/03/18 01:07:41;;;;;;;3.45;0.70;;;;;;;;;;4921096;29;20040;-79
2023/03/18 01:10:08;;;;;;;3.35;0.75;;;;;;;;;;4909705;29;20028;-79
2023/03/18 01:12:34;;;;;;;3.17;0.60;;;;;;;;;;4919822;29;20103;-79
2023/03/18 01:15:00;;;;;;;2.72;0.85;;;;;;;;;;4910338;29;20020;-80
2023/03/18 01:17:26;;;;;;;4.00;0.88;;;;;;;;;;4918938;29;20025;-79
2023/03/18 01:19:52;;;;;;;5.00;0.82;;;;;;;;;;4922978;29;20036;-80
2023/03/18 01:22:18;;;;;;;1.10;0.60;;;11.40;99.90;;;;;;4909220;29;20036;-79
2023/03/18 01:24:45;;;;;;;5.20;0.93;;;11.40;99.90;;;;;;4917451;29;20053;-78
2023/03/18 01:27:10;;;;;;;3.58;0.80;;;11.40;99.90;;;;;;4922758;29;20016;-80
2023/03/18 01:29:36;;;;;;;2.60;0.75;;;11.30;99.90;;;;;;4922448;29;20168;-79
2023/03/18 01:32:03;;;;;;;3.92;0.82;;;11.30;99.90;;;;;;4922708;29;20035;-80
2023/03/18 01:34:29;;;;;;;2.13;0.80;;;;;;;;;;4907749;29;20076;-80
2023/03/18 01:36:56;;;;;;;2.13;0.90;;;11.20;99.90;;;;;;4922069;29;20548;-80
2023/03/18 01:39:22;;;;;;;2.53;0.90;;;11.20;99.90;;;;;;4917653;29;20040;-80
2023/03/18 01:41:48;;;;;;;9.02;0.90;;;11.20;99.90;;;;;;4904373;29;20068;-79
2023/03/18 01:44:18;;;;;;;2.97;1.13;;;11.10;99.90;;;;;;4909492;29;20028;-79
2023/03/18 01:46:48;;;;;;;3.03;0.80;;;11.10;99.90;;;;;;4906626;29;20064;-81
2023/03/18 01:49:20;;;;;;;2.08;0.65;;;;;;;;;;4912307;29;20070;-81
2023/03/18 01:51:56;;;;;;;2.35;0.90;;;11.10;99.90;;;;;;4918347;29;20176;-81
2023/03/18 01:54:24;;;;;;;4.28;0.80;;;11.10;99.90;;;;;;4920834;29;20028;-81
2023/03/18 01:56:51;;;;;;;2.95;0.70;;;11.30;99.90;;;;;;4920894;29;20024;-82
2023/03/18 01:59:17;;;;;;;2.72;0.80;;;;;;;;;;4920364;29;20035;-82
2023/03/18 02:01:47;;;;;;;2.70;0.73;;;11.10;99.90;;;;;;4922130;29;20028;-81
2023/03/18 02:04:14;;;;;;;2.38;0.88;;;;;;;;;;4919512;29;20027;-81
2023/03/18 02:06:40;;;;;;;2.55;0.63;;;11.10;99.90;;;;;;4910098;29;20044;-80
2023/03/18 02:09:06;;;;;;;1.92;0.95;;;;;;;;;;4915167;29;20505;-82
2023/03/18 02:11:36;;;;;;;3.92;0.88;;;11.00;99.90;;;;;;4909199;29;20485;-81
2023/03/18 02:14:03;;;;;;;2.95;0.73;;;11.00;99.90;;;;;;4910580;29;20024;-83
2023/03/18 02:16:44;;;;;;;6.13;0.98;;;;;;;;;;4913875;29;20040;-81
2023/03/18 02:19:31;;;;;;;4.28;0.88;;;;;;;;;;4910935;29;20035;-82
2023/03/18 02:22:02;;;;;;;5.13;0.98;;;11.00;99.90;;;;;;4901072;29;20045;-82
2023/03/18 02:24:47;;;;;;;3.70;0.80;;;11.20;99.90;;;;;;4902957;29;20406;-81
2023/03/18 02:27:19;;;;;;;6.10;0.85;;;11.00;99.90;;;;;;4907612;29;20028;-82
2023/03/18 02:29:46;;;;;;;4.70;0.80;;;;;;;;;;4911814;29;20024;-82
2023/03/18 02:32:13;;;;;;;4.68;0.80;;;11.00;99.90;;;;;;4921675;29;20028;-83
2023/03/18 02:34:40;;;;;;;2.72;0.82;;;11.00;99.90;;;;;;4905286;29;20382;-84
2023/03/18 02:37:09;;;;;;;4.53;0.95;;;11.00;99.90;;;;;;4913663;29;20027;-84
2023/03/18 02:39:35;;;;;;;4.63;0.90;;;11.10;99.90;;;;;;4921535;29;20028;-84
2023/03/18 02:42:01;;;;;;;3.90;0.85;;;11.10;99.90;;;;;;4921400;29;20064;-84
2023/03/18 02:44:27;;;;;;;3.28;0.80;;;11.10;99.90;;;;;;4914898;29;20036;-86
2023/03/18 02:47:05;;;;;;;2.67;0.65;;;11.10;99.90;;;;;;4911592;29;20053;-85
2023/03/18 02:49:31;;;;;;;4.70;0.63;;;11.10;99.90;;;;;;4912756;29;20051;-84
2023/03/18 02:51:57;;;;;;;2.60;0.50;;;11.00;99.90;;;;;;4921160;29;20035;-84
2023/03/18 02:54:26;;;;;;;3.38;0.77;;;11.10;99.90;;;;;;4916641;29;20017;-84
2023/03/18 02:56:52;;;;;;;3.80;0.75;;;11.10;99.90;;;;;;4907281;29;20029;-85
2023/03/18 02:59:19;;;;;;;3.83;0.80;;;11.10;99.90;;;;;;4919606;29;20378;-85
2023/03/18 03:01:47;;;;;;;2.38;0.52;;;11.10;99.90;;;;;;4915337;29;20494;-85
2023/03/18 03:04:14;;;;;;;2.20;0.50;;;11.10;99.90;;;;;;4915471;29;20042;-86
2023/03/18 03:06:41;;;;;;;3.53;0.55;;;11.10;99.90;;;;;;4920484;29;20040;-86
2023/03/18 03:09:09;;;;;;;1.80;0.50;;;11.10;99.90;;;;;;4911324;29;20021;-84
2023/03/18 03:11:35;;;;;;;2.80;0.80;;;11.10;99.90;;;;;;4908557;29;20104;-83
2023/03/18 03:14:01;;;;;;;3.35;0.50;;;11.10;99.90;;;;;;4901277;29;20052;-84
2023/03/18 03:16:27;;;;;;;2.97;0.47;;;11.10;99.90;;;;;;4914809;29;20086;-85
2023/03/18 03:18:53;;;;;;;2.00;0.47;;;11.10;99.90;;;;;;4911364;29;20052;-84
2023/03/18 03:21:19;;;;;;;3.83;0.70;;;11.10;99.90;;;;;;4914768;29;20032;-86
2023/03/18 03:23:46;;;;;;;3.75;0.50;;;11.10;99.90;;;;;;4910830;29;20036;-86
2023/03/18 03:26:13;;;;;;;1.98;0.40;;;11.10;99.90;;;;;;4921331;29;20039;-86
2023/03/18 03:28:39;;;;;;;4.20;0.90;;;11.10;99.90;;;;;;4921280;29;20115;-85
2023/03/18 03:31:05;;;;;;;4.95;0.70;;;11.10;99.90;;;;;;4920684;29;20429;-85
2023/03/18 03:33:32;;;;;;;3.80;0.60;;;11.10;99.90;;;;;;4918946;29;20600;-87
2023/03/18 03:35:58;;;;;;;3.15;0.75;;;11.10;99.90;;;;;;4921239;29;20060;-87
2023/03/18 03:38:24;;;;;;;3.10;0.50;;;;;;;;;;4919979;29;20028;-87
2023/03/18 03:40:50;;;;;;;2.75;0.85;;;11.20;99.90;;;;;;4908542;29;20043;-89
2023/03/18 03:43:15;;;;;;;5.35;0.90;;;11.20;99.90;;;;;;4921593;29;20035;-88
2023/03/18 03:45:43;;;;;;;3.83;0.70;;;11.20;99.90;;;;;;4910886;29;20028;-89
2023/03/18 03:48:09;;;;;;;7.13;1.10;;;11.30;99.90;;;;;;4911466;29;20086;-87
2023/03/18 03:50:37;;;;;;;6.55;1.15;;;11.40;99.90;;;;;;4908575;29;20107;-86
2023/03/18 03:53:03;;;;;;;10.38;1.60;;;11.40;99.90;;;;;;4920897;29;20020;-87
2023/03/18 03:55:30;;;;;;;8.23;1.20;;;11.40;99.90;;;;;;4906724;29;20556;-85
2023/03/18 03:57:56;;;;;;;5.35;1.00;;;11.50;99.90;;;;;;4920644;29;20445;-86
2023/03/18 04:00:23;;;;;;;8.63;1.27;;;11.50;99.90;;;;;;4917492;29;20036;-85
2023/03/18 04:02:50;;;;;;;4.07;0.77;;;11.50;99.90;;;;;;4911368;29;20084;-85
2023/03/18 04:05:18;;;;;;;6.70;1.23;;;11.50;99.90;;;;;;4908503;29;20511;-86
2023/03/18 04:07:45;;;;;;;4.03;0.80;;;11.40;99.90;;;;;;4920375;29;20036;-85
2023/03/18 04:10:13;;;;;;;5.93;1.13;;;11.50;99.90;;;;;;4912267;29;20481;-85
2023/03/18 04:12:39;;;;;;;4.15;0.70;;;11.50;99.90;;;;;;4907666;29;20019;-85
2023/03/18 04:15:06;;;;;;;4.90;0.98;;;11.50;99.90;;;;;;4920240;29;20020;-84
2023/03/18 04:17:33;;;;;;;4.88;0.60;;;11.50;99.90;;;;;;4917256;29;20028;-84
2023/03/18 04:19:59;;;;;;;8.02;1.00;;;11.50;99.90;;;;;;4918940;29;20044;-84
2023/03/18 04:22:25;;;;;;;4.80;0.80;;;11.50;99.90;;;;;;4905940;29;20081;-85
2023/03/18 04:24:51;;;;;;;6.78;1.10;;;11.60;99.90;;;;;;4916814;29;20032;-85
2023/03/18 04:27:17;;;;;;;4.55;0.88;;;11.60;99.90;;;;;;4920319;29;20401;-83
2023/03/18 04:29:43;;;;;;;4.32;0.95;;;11.60;99.90;;;;;;4919864;29;20039;-84
2023/03/18 04:32:09;;;;;;;5.70;1.05;;;11.60;99.90;;;;;;4920208;29;20028;-84
2023/03/18 04:34:35;;;;;;;7.15;0.88;;;11.60;99.90;;;;;;4903225;29;20036;-83
2023/03/18 04:37:02;;;;;;;5.85;0.95;;;11.60;99.90;;;;;;4913136;29;20400;-82
2023/03/18 04:39:28;;;;;;;5.30;1.02;;;11.60;99.90;;;;;;4920022;29;20029;-83
2023/03/18 04:41:55;;;;;;;5.18;0.90;;;11.60;99.90;;;;;;4918605;29;20032;-83
2023/03/18 04:44:23;;;;;;;5.30;1.00;;;11.60;99.90;;;;;;4910586;29;20060;-84
2023/03/18 04:46:48;;;;;;;6.70;1.10;;;11.60;99.90;;;;;;4911756;29;20108;-82
2023/03/18 04:49:14;;;;;;;7.03;1.17;;;11.60;99.90;;;;;;4909126;29;20028;-83
2023/03/18 04:51:40;;;;;;;5.03;1.10;;;11.60;99.90;;;;;;4917399;29;20024;-84
2023/03/18 04:54:06;;;;;;;5.78;0.90;;;11.60;99.90;;;;;;4920122;29;20441;-84
2023/03/18 04:56:32;;;;;;;5.95;1.15;;;11.60;99.90;;;;;;4920951;29;20088;-85
2023/03/18 04:58:57;;;;;;;5.05;1.10;;;11.60;99.90;;;;;;4920223;29;20020;-86
2023/03/18 05:01:23;;;;;;;8.38;1.00;;;11.60;99.90;;;;;;4923460;29;20076;-86
2023/03/18 05:03:49;;;;;;;7.05;0.98;;;11.60;99.90;;;;;;4910879;29;20051;-85
2023/03/18 05:06:25;;;;;;;7.88;1.20;;;11.60;99.90;;;;;;4912763;29;20025;-86
2023/03/18 05:08:52;;;;;;;5.68;1.13;;;11.70;99.90;;;;;;4915350;29;20112;-86
2023/03/18 05:11:19;;;;;;;6.15;1.23;;;11.70;99.90;;;;;;4916726;29;20150;-87
2023/03/18 05:13:45;;;;;;;5.05;0.77;;;11.70;99.90;;;;;;4919877;29;20066;-84
2023/03/18 05:16:11;;;;;;;6.75;1.33;;;11.70;99.90;;;;;;4922702;29;20111;-86
2023/03/18 05:18:38;;;;;;;6.93;1.10;;;11.70;99.90;;;;;;4909918;29;20074;-84
2023/03/18 05:21:04;;;;;;;5.10;0.95;;;11.70;99.90;;;;;;4912937;29;20051;-86
2023/03/18 05:23:30;;;;;;;6.20;0.80;;;11.70;99.90;;;;;;4905600;29;20025;-84
2023/03/18 05:25:55;;;;;;;3.95;0.90;;;11.70;99.90;;;;;;4916414;29;20062;-84
2023/03/18 05:28:21;;;;;;;3.08;0.60;;;11.70;99.90;;;;;;4914918;29;20064;-84
2023/03/18 05:30:47;;;;;;;5.70;0.70;;;11.70;99.90;;;;;;4917527;29;20024;-83
2023/03/18 05:33:13;;;;;;;4.65;0.80;;;11.70;99.90;;;;;;4916376;29;20040;-83
2023/03/18 05:35:39;;;;;;;6.43;0.70;;;11.70;99.90;;;;;;4903937;29;20021;-83
2023/03/18 05:38:06;;;;;;;2.33;0.50;;;11.70;99.90;;;;;;4915537;29;20032;-84
2023/03/18 05:40:32;;;;;;;2.38;0.50;;;11.70;99.90;;;;;;4910439;29;20052;-84
2023/03/18 05:42:58;;;;;;;2.70;0.77;;;11.70;99.90;;;;;;4921599;29;20108;-85
2023/03/18 05:45:24;;;;;;;3.22;0.70;;;11.70;99.90;;;;;;4922618;29;20064;-85
2023/03/18 05:47:50;;;;;;;2.70;0.43;;;11.70;99.90;;;;;;4919238;29;20076;-82
2023/03/18 05:50:38;;;;;;;4.80;0.95;;;11.70;99.90;;;;;;4916273;29;20036;-85
2023/03/18 05:53:05;;;;;;;2.45;0.40;;;11.70;99.90;;;;;;4908624;29;20430;-83
2023/03/18 05:55:31;;;;;;;1.55;0.40;;;11.70;99.90;;;;;;4908486;29;20020;-83
2023/03/18 05:57:59;;;;;;;1.15;0.40;;;11.70;99.90;;;;;;4912963;29;20162;-84
2023/03/18 06:00:27;;;;;;;4.07;0.60;;;11.60;99.90;;;;;;4920921;29;20031;-84
2023/03/18 06:02:53;;;;;;;2.53;0.40;;;11.60;99.90;;;;;;4911121;29;20031;-83
2023/03/18 06:05:21;;;;;;;1.05;0.30;;;11.60;99.90;;;;;;4909275;29;20129;-80
2023/03/18 06:07:47;;;;;;;2.28;0.47;;;11.60;99.90;;;;;;4921051;29;20082;-83
2023/03/18 06:10:13;;;;;;;2.03;0.40;;;11.60;99.90;;;;;;4919009;29;20393;-82
2023/03/18 06:12:40;;;;;;;1.38;0.30;;;11.60;99.90;;;;;;4920683;29;20039;-82
2023/03/18 06:15:08;;;;;;;1.65;0.20;;;11.60;99.90;;;;;;4921802;29;20016;-81
2023/03/18 06:17:33;;;;;;;3.10;0.35;;;11.50;99.90;;;;;;4919732;29;20442;-82
2023/03/18 06:19:59;;;;;;;1.67;0.45;;;11.50;99.90;;;;;;4921963;29;20063;-83
2023/03/18 06:22:25;;;;;;;2.90;0.85;;;11.50;99.90;;;;;;4906260;29;20025;-83
2023/03/18 06:24:52;;;;;;;1.08;0.28;;;11.50;99.90;;;;;;4917356;29;20048;-82
2023/03/18 06:27:18;;;;;;;1.67;0.40;;;11.50;99.90;;;;;;4908865;29;20052;-83
2023/03/18 06:29:44;;;;;;;1.92;0.35;;;11.60;99.90;;;;;;4921356;29;20374;-83
2023/03/18 06:32:10;;;;;;;1.52;0.50;;;11.60;99.90;;;;;;4921756;29;20502;-83
2023/03/18 06:34:36;;;;;;;2.67;0.50;;;11.60;99.90;;;;;;4905820;29;20141;-84
2023/03/18 06:37:02;;;;;;;2.47;0.55;;;11.60;99.90;;;;;;4921755;29;20057;-84
2023/03/18 06:39:28;;;;;;;1.58;0.40;;;11.60;99.90;;;;;;4920133;29;20030;-84
2023/03/18 06:41:54;;;;;;;2.05;0.30;;;11.60;99.90;;;;;;4921543;29;20039;-83
2023/03/18 06:44:21;;;;;;;3.08;0.50;;;11.60;99.90;;;;;;4918113;29;20032;-85
2023/03/18 06:46:47;;;;;;;1.65;0.50;;;11.60;99.90;;;;;;4911996;29;20561;-85
2023/03/18 06:49:13;;;;;;;2.28;0.40;;;11.70;99.90;;;;;;4911747;29;20059;-83
2023/03/18 06:51:39;;;;;;;1.20;0.30;;;11.70;99.90;;;;;;4918704;29;20397;-86
2023/03/18 06:54:06;;;;;;;0.82;0.30;;;11.60;99.90;;;;;;4916693;29;20029;-85
2023/03/18 06:56:37;;;;;;;2.10;0.82;;;11.70;99.90;;;;;;4900485;29;20067;-85
2023/03/18 06:59:04;;;;;;;1.60;0.30;;;11.70;99.90;;;;;;4918153;29;20095;-85
2023/03/18 07:01:31;;;;;;;0.85;0.30;;;11.80;99.90;;;;;;4916404;29;20036;-86
2023/03/18 07:03:59;;;;;;;1.50;0.30;;;11.80;99.90;;;;;;4918920;29;20039;-85
2023/03/18 07:06:25;;;;;;;1.00;0.30;;;11.80;99.90;;;;;;4920575;29;20028;-86
2023/03/18 07:08:51;;;;;;;1.83;0.50;;;11.80;99.90;;;;;;4904078;29;20120;-87
2023/03/18 07:11:17;;;;;;;1.83;0.40;;;11.90;99.90;;;;;;4905918;29;20091;-85
2023/03/18 07:13:43;;;;;;;0.75;0.30;;;11.90;99.90;;;;;;4920045;29;20497;-86
2023/03/18 07:16:09;;;;;;;2.72;0.40;;;11.80;99.90;;;;;;4908422;29;20108;-86
2023/03/18 07:18:36;;;;;;;1.05;0.40;;;11.90;99.90;;;;;;4919661;29;20445;-83
2023/03/18 07:21:02;;;;;;;1.50;0.30;;;11.90;99.90;;;;;;4916257;29;20545;-82
2023/03/18 07:23:28;;;;;;;2.20;0.32;;;11.80;99.90;;;;;;4912852;29;20025;-82
2023/03/18 07:25:54;;;;;;;2.47;0.30;;;11.80;99.90;;;;;;4910233;29;20033;-81
2023/03/18 07:28:19;;;;;;;1.15;0.50;;;11.80;99.90;;;;;;4919894;29;20076;-82
2023/03/18 07:30:45;;;;;;;1.45;0.40;;;11.80;99.90;;;;;;4919605;29;20064;-81
2023/03/18 07:33:11;;;;;;;1.08;0.30;;;11.80;99.90;;;;;;4915107;29;20130;-81
2023/03/18 07:35:39;;;;;;;0.60;0.30;;;11.80;99.90;;;;;;4909301;29;20039;-81
2023/03/18 07:38:06;;;;;;;0.90;0.30;;;11.80;99.90;;;;;;4913041;29;20024;-81
2023/03/18 07:40:32;;;;;;;1.35;0.43;;;11.80;99.90;;;;;;4904408;29;20035;-79
2023/03/18 07:42:58;;;;;;;1.60;0.30;;;11.80;99.90;;;;;;4916588;29;20025;-80
2023/03/18 07:45:24;;;;;;;2.17;0.50;;;11.80;99.90;;;;;;4907102;29;20400;-82
2023/03/18 07:47:50;;;;;;;0.80;0.30;;;11.90;99.90;;;;;;4870269;29;1091661;-81
2023/03/18 07:50:16;;;;;;;1.73;0.30;;;11.90;99.90;;;;;;4915035;29;20040;-81
2023/03/18 07:52:41;;;;;;;1.40;0.38;;;11.90;99.90;;;;;;4920434;29;20020;-81
2023/03/18 07:55:08;;;;;;;0.90;0.30;;;12.00;99.90;;;;;;4919096;29;20056;-81
2023/03/18 07:57:34;;;;;;;1.55;0.30;;;12.00;99.90;;;;;;4912643;29;20096;-81
2023/03/18 08:00:00;;;;;;;1.90;0.30;;;12.00;99.90;;;;;;4911317;29;20568;-82
2023/03/18 08:02:27;;;;;;;2.40;0.40;;;12.00;99.90;;;;;;4920500;29;20135;-81
2023/03/18 08:04:53;;;;;;;1.38;0.40;;;;;;;;;;4920433;29;20031;-85
2023/03/18 08:07:19;;;;;;;2.35;0.90;;;12.20;99.90;;;;;;4914738;29;20421;-84
2023/03/18 08:09:44;;;;;;;1.75;0.50;;;12.20;99.90;;;;;;4909051;29;20040;-82
2023/03/18 08:12:10;;;;;;;1.10;0.38;;;12.30;99.90;;;;;;4914032;29;20024;-83
2023/03/18 08:14:36;;;;;;;1.90;0.47;;;12.40;99.90;;;;;;4920227;29;20024;-83
2023/03/18 08:17:02;;;;;;;2.90;0.45;;;12.40;99.90;;;;;;4917643;29;20068;-85
2023/03/18 08:19:28;;;;;;;1.45;0.50;;;12.50;99.90;;;;;;4920313;29;20063;-84
2023/03/18 08:21:54;;;;;;;1.08;0.40;;;12.50;99.90;;;;;;4909928;29;20036;-83
2023/03/18 08:24:20;;;;;;;2.53;0.50;;;12.50;99.90;;;;;;4915085;29;20028;-83
2023/03/18 08:26:46;;;;;;;4.05;0.60;;;12.60;99.90;;;;;;4918999;29;20032;-84
2023/03/18 08:29:12;;;;;;;2.47;0.40;;;12.60;99.90;;;;;;4911892;29;20031;-84
2023/03/18 08:31:37;;;;;;;2.05;0.57;;;12.60;99.90;;;;;;4921149;29;20028;-84
2023/03/18 08:34:03;;;;;;;3.08;0.60;;;12.70;99.90;;;;;;4922662;29;20021;-85
2023/03/18 08:36:30;;;;;;;2.17;0.57;;;12.80;99.90;;;;;;4923534;29;20024;-85
2023/03/18 08:38:55;;;;;;;2.00;0.50;;;12.90;99.90;;;;;;4912648;29;20108;-84
2023/03/18 08:41:24;;;;;;;0.50;0.20;;;12.90;99.90;;;;;;4909632;29;20509;-83
2023/03/18 08:43:51;;;;;;;2.08;0.63;;;12.90;99.90;;;;;;4912757;29;20028;-84
2023/03/18 08:46:17;;;;;;;1.65;0.45;;;12.90;99.90;;;;;;4915329;29;20511;-81
2023/03/18 08:48:43;;;;;;;1.75;0.40;;;12.90;99.90;;;;;;4917805;29;20043;-84
2023/03/18 08:51:12;;;;;;;1.40;0.40;;;12.90;99.90;;;;;;4915721;29;20024;-86
2023/03/18 08:53:37;;;;;;;1.10;0.35;;;12.90;99.90;;;;;;4914162;29;20050;-85
2023/03/18 08:56:05;;;;;;;1.80;0.50;;;12.80;99.90;;;;;;4916058;29;20028;-85
2023/03/18 08:58:31;;;;;;;1.38;0.47;;;12.90;99.90;;;;;;4910190;29;20079;-83
2023/03/18 09:00:57;;;;;;;1.25;0.50;;;12.90;99.90;;;;;;4914736;29;20028;-83
2023/03/18 09:03:23;;;;;;;1.48;0.43;;;13.20;99.90;;;;;;4911605;29;20032;-82
2023/03/18 09:05:51;;;;;;;2.78;0.50;;;13.30;99.90;;;;;;4910170;29;20031;-82
2023/03/18 09:08:17;;;;;;;3.20;1.05;;;13.20;99.90;;;;;;4915820;29;20040;-83
2023/03/18 09:10:44;;;;;;;1.90;0.40;;;13.30;99.90;;;;;;4919454;29;20683;-81
2023/03/18 09:13:11;;;;;;;2.60;0.68;;;13.30;99.90;;;;;;4909994;29;20036;-87
2023/03/18 09:15:37;;;;;;;3.90;0.73;;;13.20;99.90;;;;;;4916513;29;20473;-86
2023/03/18 09:18:03;;;;;;;2.97;1.00;;;13.20;99.90;;;;;;4912139;29;20028;-84
2023/03/18 09:20:28;;;;;;;1.27;0.57;;;13.20;99.90;;;;;;4915504;29;20091;-84
2023/03/18 09:22:55;;;;;;;2.28;0.60;;;13.20;99.90;;;;;;4913318;29;20132;-83
2023/03/18 09:25:20;;;;;;;2.85;0.63;;;13.30;99.90;;;;;;4915102;29;20024;-84
2023/03/18 09:27:46;;;;;;;1.45;0.60;;;13.30;99.90;;;;;;4916912;29;20132;-82
2023/03/18 09:30:13;;;;;;;2.80;0.93;;;13.40;99.90;;;;;;4913242;29;20028;-83
2023/03/18 09:32:38;;;;;;;4.10;1.10;;;13.40;99.90;;;;;;4919252;29;20032;-83
2023/03/18 09:35:05;;;;;;;11.52;6.15;;;13.30;99.90;;;;;;4914762;29;20485;-83
2023/03/18 09:37:31;;;;;;;5.18;2.53;;;13.30;99.90;;;;;;4917950;29;20031;-84
2023/03/18 09:39:57;;;;;;;4.90;1.70;;;13.30;99.90;;;;;;4914915;29;20032;-80
2023/03/18 09:43:01;;;;;;;3.65;1.73;;;13.20;99.90;;;;;;4917222;29;20032;-81
2023/03/18 09:45:35;;;;;;;;;;;13.20;99.90;;;;;;4915422;29;20032;-78
2023/03/18 09:48:27;;;;;;;3.92;2.10;;;13.20;99.90;;;;;;4913845;29;19919;-79
2023/03/18 09:51:16;;;;;;;5.45;1.20;;;13.30;99.90;;;;;;4919129;29;20105;-79
2023/03/18 09:53:51;;;;;;;3.65;1.30;;;13.40;99.90;;;;;;4926814;29;20024;-80
2023/03/18 09:56:23;;;;;;;3.35;1.10;;;13.40;99.90;;;;;;4917563;29;20031;-86
2023/03/18 09:58:55;;;;;;;3.40;0.80;;;13.30;99.90;;;;;;4917706;29;20028;-88
2023/03/18 10:01:24;;;;;;;4.10;0.98;;;13.30;99.90;;;;;;4930222;29;20028;-85
2023/03/18 10:04:18;;;;;;;2.40;0.80;;;13.20;99.90;;;;;;4920237;29;20043;-84
2023/03/18 10:06:47;;;;;;;2.22;0.70;;;13.10;99.90;;;;;;4910433;29;20024;-84
2023/03/18 10:09:22;;;;;;;4.40;1.00;;;13.10;99.90;;;;;;4911955;29;20112;-83
2023/03/18 10:11:52;;;;;;;2.83;0.50;;;13.10;99.90;;;;;;4917136;29;20092;-88
2023/03/18 10:15:03;;;;;;;3.45;0.90;;;13.20;99.90;;;;;;4913942;29;20064;-87
2023/03/18 10:17:58;;;;;;;3.92;1.50;;;13.30;99.90;;;;;;4856875;29;20057;-83
2023/03/18 10:21:03;;;;;;;4.80;1.20;;;13.40;99.90;;;;;;4867274;29;20510;-83
2023/03/18 10:23:48;;;;;;;3.67;1.15;;;13.60;99.90;;;;;;4908224;29;20060;-85
2023/03/18 10:26:32;;;;;;;3.28;0.80;;;14.00;99.90;;;;;;4916757;29;20021;-85
2023/03/18 10:28:58;;;;;;;;;;;13.90;99.90;;;;;;4914272;29;20024;-86
2023/03/18 10:31:44;;;;;;;4.53;0.75;;;14.10;99.90;;;;;;4920655;29;19907;-79
2023/03/18 10:34:21;;;;;;;3.83;1.42;;;14.20;99.90;;;;;;4909070;29;20033;-78
2023/03/18 10:37:17;;;;;;;4.63;1.50;;;14.30;99.90;;;;;;4909434;29;20420;-78
2023/03/18 10:39:45;;;;;;;3.55;1.00;;;14.30;99.90;;;;;;4911391;29;20039;-80
2023/03/18 10:42:27;;;;;;;3.78;0.90;;;14.40;99.90;;;;;;4907494;29;20189;-79
2023/03/18 10:45:01;;;;;;;4.25;1.00;;;14.50;99.90;;;;;;4917310;29;20095;-78
2023/03/18 10:47:33;;;;;;;5.72;1.10;;;14.30;99.90;;;;;;4907341;29;20059;-78
2023/03/18 10:50:24;;;;;;;3.28;1.20;;;14.20;99.90;;;;;;4913587;29;20036;-78
2023/03/18 10:52:57;;;;;;;4.80;1.23;;;14.20;99.90;;;;;;4905237;29;20107;-78
2023/03/18 10:55:30;;;;;;;3.80;0.82;;;14.10;99.90;;;;;;4919496;29;20028;-78
2023/03/18 10:57:56;;;;;;;3.75;0.77;;;13.90;99.90;;;;;;4921217;29;20024;-80
2023/03/18 11:00:32;;;;;;;2.90;0.80;;;13.90;99.90;;;;;;4919641;29;20025;-80
2023/03/18 11:02:59;;;;;;;3.65;0.90;;;13.80;99.90;;;;;;4921125;29;20016;-79
2023/03/18 11:05:25;;;;;;;4.55;1.08;;;;;;;;;;4921154;29;20457;-78
2023/03/18 11:08:34;;;;;;;3.45;1.05;;;13.80;99.90;;;;;;4920045;29;20031;-78
2023/03/18 11:11:32;;;;;;;2.15;0.68;;;13.90;99.90;;;;;;4917713;29;20020;-79
2023/03/18 11:14:00;;;;;;;5.82;0.95;;;14.10;99.90;;;;;;4894362;29;20028;-79
2023/03/18 11:16:41;;;;;;;3.33;0.70;;;14.30;99.90;;;;;;4915314;29;20112;-79
2023/03/18 11:19:37;;;;;;;2.58;0.57;;;14.40;99.90;;;;;;4913156;29;20020;-79
2023/03/18 11:22:12;;;;;;;4.90;1.00;;;14.40;99.90;;;;;;4915248;29;20028;-79
2023/03/18 11:24:41;;;;;;;4.30;0.70;;;14.40;99.90;;;;;;4904894;29;20108;-80
2023/03/18 11:27:13;;;;;;;4.32;1.00;;;14.50;99.90;;;;;;4920734;29;20564;-80
2023/03/18 11:29:42;;;;;;;5.07;1.80;;;14.70;99.90;;;;;;4920426;29;20031;-80
2023/03/18 11:32:23;;;;;;;2.15;0.82;;;14.80;99.90;;;;;;4920652;29;20028;-80
2023/03/18 11:34:56;;;;;;;3.45;0.95;;;14.70;99.90;;;;;;4905025;29;20058;-79
2023/03/18 11:37:25;;;;;;;;;;;14.80;99.90;;;;;;4919794;29;20028;-79
2023/03/18 11:39:51;;;;;;;4.47;0.98;;;14.80;99.90;;;;;;4919189;29;19918;-79
2023/03/18 11:42:20;;;;;;;4.72;0.80;;;14.70;99.90;;;;;;4919271;29;20028;-79
2023/03/18 11:44:48;;;;;;;3.17;0.50;;;14.60;99.90;;;;;;4904635;29;20028;-79
2023/03/18 11:47:31;;;;;;;5.00;0.88;;;14.50;99.90;;;;;;4919131;29;20044;-79
2023/03/18 11:49:58;;;;;;;3.37;0.70;;;14.30;99.90;;;;;;4912413;29;20111;-80
2023/03/18 11:52:40;;;;;;;3.38;0.60;;;14.10;99.90;;;;;;4911190;29;20713;-80
2023/03/18 11:55:26;;;;;;;5.55;1.42;;;13.90;99.90;;;;;;4912889;29;20047;-79
2023/03/18 11:58:30;;;;;;;6.68;1.90;;;13.80;99.90;;;;;;4911534;29;20036;-81
2023/03/18 12:01:09;;;;;;;;;;;13.90;99.90;;;;;;4903748;29;20031;-80
2023/03/18 12:03:59;;;;;;;6.38;0.90;;;13.90;99.90;;;;;;4920292;29;19911;-79
2023/03/18 12:06:31;;;;;;;3.70;0.80;;;13.90;99.90;;;;;;4920027;29;20032;-80
2023/03/18 12:09:15;;;;;;;3.88;0.80;;;14.00;99.90;;;;;;4920756;29;20407;-80
2023/03/18 12:11:56;;;;;;;3.17;0.88;;;14.00;99.90;;;;;;4922494;29;20035;-80
2023/03/18 12:14:44;;;;;;;3.90;0.75;;;14.10;99.90;;;;;;4923993;29;20020;-79
2023/03/18 12:17:18;;;;;;;3.40;0.73;;;14.10;99.90;;;;;;4907624;29;20402;-79
2023/03/18 12:20:08;;;;;;;2.17;0.63;;;14.00;99.90;;;;;;4914126;29;20157;-79
2023/03/18 12:22:39;;;;;;;4.65;0.50;;;14.00;99.90;;;;;;4920709;29;20115;-80
2023/03/18 12:25:29;;;;;;;3.13;0.80;;;14.10;99.90;;;;;;4908959;29;20103;-79
2023/03/18 12:28:42;;;;;;;2.55;0.70;;;14.20;99.90;;;;;;4923673;29;20024;-78
2023/03/18 12:32:15;;;;;;;3.28;0.70;;;14.30;99.90;;;;;;4913643;29;20039;-78
2023/03/18 12:34:47;;;;;;;1.83;0.52;;;14.50;99.90;;;;;;4865194;29;20113;-79
2023/03/18 12:37:35;;;;;;;3.03;0.65;;;14.60;99.90;;;;;;4865404;29;20033;-79
2023/03/18 12:40:05;;;;;;;2.38;0.52;;;14.70;99.90;;;;;;4896222;29;20051;-78
2023/03/18 12:42:39;;;;;;;3.00;0.80;;;14.80;99.90;;;;;;4911116;29;20029;-78
2023/03/18 12:45:09;;;;;;;2.78;0.60;;;14.80;99.90;;;;;;4908553;29;20034;-79
2023/03/18 12:47:44;;;;;;;3.15;0.60;;;14.80;99.90;;;;;;4921353;29;20044;-78
2023/03/18 12:50:27;;;;;;;2.75;0.50;;;14.80;99.90;;;;;;4915796;29;20032;-78
2023/03/18 12:53:05;;;;;;;2.25;0.60;;;14.80;99.90;;;;;;4921782;29;20048;-79
2023/03/18 12:55:53;;;;;;;1.98;0.43;;;14.90;99.90;;;;;;4919590;29;20084;-78
2023/03/18 12:58:26;;;;;;;2.22;0.65;;;15.10;99.90;;;;;;4918248;29;20532;-79
2023/03/18 13:00:52;;;;;;;2.20;0.50;;;15.30;99.90;;;;;;4914799;29;20028;-79
2023/03/18 13:03:34;;;;;;;2.47;0.38;;;15.50;99.90;;;;;;4920185;29;20040;-79
2023/03/18 13:06:10;;;;;;;2.50;0.65;;;15.50;99.90;;;;;;4910890;29;20035;-79
2023/03/18 13:09:21;;;;;;;2.13;0.68;;;15.80;99.90;;;;;;4918749;29;20043;-78
2023/03/18 13:12:00;;;;;;;1.60;0.40;;;16.00;99.90;;;;;;4893872;29;20040;-79
2023/03/18 13:14:32;;;;;;;2.25;0.70;;;16.00;99.90;;;;;;4908622;29;20063;-79
2023/03/18 13:16:59;;;;;;;5.50;0.77;;;15.90;99.90;;;;;;4919868;29;20020;-81